»·PEaware :: UAL404 LIPE-LSGG

UAL404 :: LIPE-LSGG

FLIGHT INFORMATION

Flight Status: Arrived
Operator:
United Airlines
More flights by this operator :: More flights under this callsign
Pilot: Wadhah A. (6578)
Aircraft: AIRBUS A320
(A320)
More flights by this aircraft type
Origin: LIPE Borgo Panigale
Italy
Destination: LSGG Geneva
Switzerland
More flights between these airports :: More routes between these airports
Route: LUPOS L995 MISPO UL995 TZO UZ982 SRN UL615 AOSTA UZ637 BANKO
File this flight plan on PilotEdge
Remarks:
Altitude:
(Current/Filed)
28,000ft
Speed:
(Current/Filed)
450kts
Departed: 29-Dec-15 07:34 PM
Arrived: 29-Dec-15 08:29 PM
Distance/Time
Traveled:
241nm/0:55
Distance/Time
To Go:
Arrived

Flight Plot

Page will automatically refresh every two minutes.


Map Options




Map Legend


Flown Route
Filed Route
Departure Airport
Arrival Airport
Navaid (VOR, NDB)
Fix

Horizontal Profiles

Position Reports

Time Latitude Longitude Heading Altitude Ground
Speed
29-Dec-15 19:00 44.533479 11.285478 248 132ft 0kts
29-Dec-15 19:01 44.533479 11.285478 248 132ft 0kts
29-Dec-15 19:02 44.533479 11.285478 248 132ft 0kts
29-Dec-15 19:03 44.533479 11.285478 248 132ft 0kts
29-Dec-15 19:04 44.533479 11.285478 248 132ft 0kts
29-Dec-15 19:05 44.533745 11.285127 13 131ft 7kts
29-Dec-15 19:06 44.533214 11.289403 116 131ft 18kts
29-Dec-15 19:07 44.532261 11.292056 116 131ft 0kts
29-Dec-15 19:08 44.532261 11.292056 116 131ft 0kts
29-Dec-15 19:09 44.532261 11.292056 116 131ft 0kts
29-Dec-15 19:10 44.532261 11.292056 116 131ft 0kts
29-Dec-15 19:11 44.532261 11.292056 116 131ft 0kts
29-Dec-15 19:12 44.532261 11.292056 116 131ft 0kts
29-Dec-15 19:13 44.532261 11.292056 116 131ft 0kts
29-Dec-15 19:14 44.532261 11.292056 116 131ft 0kts
29-Dec-15 19:15 44.532261 11.292056 116 131ft 0kts
29-Dec-15 19:16 44.532261 11.292056 116 131ft 0kts
29-Dec-15 19:17 44.532261 11.292056 116 131ft 0kts
29-Dec-15 19:18 44.532261 11.292056 116 131ft 0kts
29-Dec-15 19:19 44.532261 11.292056 116 131ft 0kts
29-Dec-15 19:20 44.532261 11.292056 116 131ft 0kts
29-Dec-15 19:21 44.532261 11.292056 116 131ft 0kts
29-Dec-15 19:22 44.532261 11.292056 116 131ft 0kts
29-Dec-15 19:23 44.532261 11.292056 116 131ft 0kts
29-Dec-15 19:24 44.532261 11.292056 116 131ft 0kts
29-Dec-15 19:25 44.532261 11.292056 116 131ft 0kts
29-Dec-15 19:26 44.532261 11.292056 116 131ft 0kts
29-Dec-15 19:27 44.531690 11.293651 117 131ft 15kts
29-Dec-15 19:28 44.530675 11.296464 116 131ft 12kts
29-Dec-15 19:29 44.530618 11.299776 56 131ft 10kts
29-Dec-15 19:30 44.539579 11.277122 295 689ft 163kts
29-Dec-15 19:31 44.562138 11.213615 288 2453ft 253kts
29-Dec-15 19:32 44.555768 11.116659 261 6098ft 261kts
29-Dec-15 19:33 44.545966 11.013983 261 9265ft 276kts
29-Dec-15 19:34 44.535221 10.900348 262 11022ft 338kts
29-Dec-15 19:35 44.523494 10.771752 261 13841ft 357kts
29-Dec-15 19:36 44.511045 10.631803 270 16683ft 372kts
29-Dec-15 19:37 44.573767 10.522072 324 18918ft 387kts
29-Dec-15 19:38 44.664610 10.437041 326 20841ft 399kts
29-Dec-15 19:39 44.742802 10.365735 327 22351ft 408kts
29-Dec-15 19:40 44.838481 10.276654 322 24166ft 419kts
29-Dec-15 19:41 44.931578 10.178090 323 25946ft 430kts
29-Dec-15 19:42 45.026314 10.077850 323 27509ft 440kts
29-Dec-15 19:43 45.124540 9.972509 323 28392ft 447kts
29-Dec-15 19:44 45.221795 9.869413 323 28401ft 447kts
29-Dec-15 19:45 45.321196 9.763599 323 28399ft 450kts
29-Dec-15 19:46 45.420571 9.657022 323 28399ft 448kts
29-Dec-15 19:47 45.519770 9.550095 323 28399ft 448kts
29-Dec-15 19:48 45.575385 9.411299 287 28400ft 452kts
29-Dec-15 19:49 45.606922 9.241943 286 28401ft 449kts
29-Dec-15 19:50 45.637536 9.069795 286 28405ft 450kts
29-Dec-15 19:51 45.657850 8.897349 279 28400ft 450kts
29-Dec-15 19:52 45.674139 8.730425 279 28399ft 450kts
29-Dec-15 19:53 45.690647 8.554402 279 28400ft 450kts
29-Dec-15 19:54 45.706580 8.381371 279 28400ft 450kts
29-Dec-15 19:55 45.722589 8.203933 283 28400ft 453kts
29-Dec-15 19:56 45.738001 8.030670 283 28365ft 465kts
29-Dec-15 19:57 45.752616 7.861318 282 28322ft 478kts
29-Dec-15 19:58 45.768194 7.684760 282 28319ft 479kts
29-Dec-15 19:59 45.783544 7.503787 282 28319ft 467kts
29-Dec-15 20:00 45.798007 7.326493 282 28319ft 463kts
29-Dec-15 20:01 45.812814 7.143513 282 28338ft 461kts
29-Dec-15 20:02 45.848630 6.979670 321 26743ft 418kts
29-Dec-15 20:03 45.917193 6.850529 310 24295ft 421kts
29-Dec-15 20:04 45.982428 6.712515 308 21703ft 413kts
29-Dec-15 20:05 46.044520 6.578339 306 19212ft 404kts
29-Dec-15 20:06 46.106301 6.446978 306 16754ft 396kts
29-Dec-15 20:07 46.167349 6.317114 305 14324ft 387kts
29-Dec-15 20:08 46.226275 6.191212 304 11997ft 372kts
29-Dec-15 20:09 46.293220 6.102709 4 10696ft 314kts
29-Dec-15 20:10 46.336759 6.189515 76 10331ft 280kts
29-Dec-15 20:11 46.368669 6.290519 52 9207ft 277kts
29-Dec-15 20:12 46.418160 6.372063 46 8357ft 281kts
29-Dec-15 20:13 46.470085 6.451814 46 7899ft 266kts
29-Dec-15 20:14 46.526868 6.509078 20 6992ft 247kts
29-Dec-15 20:15 46.565049 6.563293 112 6980ft 212kts
29-Dec-15 20:16 46.524104 6.549169 235 6978ft 193kts
29-Dec-15 20:17 46.491461 6.482747 228 6983ft 222kts
29-Dec-15 20:18 46.446606 6.416553 225 6962ft 218kts
29-Dec-15 20:19 46.410140 6.363254 226 6015ft 185kts
29-Dec-15 20:20 46.375508 6.312003 226 5007ft 178kts
29-Dec-15 20:21 46.343122 6.264037 225 4057ft 151kts
29-Dec-15 20:22 46.313534 6.220289 226 3228ft 153kts
29-Dec-15 20:23 46.284066 6.176774 226 2399ft 149kts
29-Dec-15 20:24 46.255102 6.134056 226 1592ft 151kts
29-Dec-15 20:25 46.236770 6.107710 203 1419ft 33kts
29-Dec-15 20:26 46.232874 6.106047 181 1419ft 0kts
29-Dec-15 20:27 46.232874 6.106047 181 1419ft 0kts
29-Dec-15 20:28 46.232874 6.106047 181 1419ft 0kts
29-Dec-15 20:29 46.232874 6.106047 181 1419ft 0kts
29-Dec-15 20:30 46.232874 6.106047 181 1419ft 0kts
29-Dec-15 20:31 46.232874 6.106047 181 1419ft 0kts
29-Dec-15 20:32 46.232874 6.106047 181 1419ft 0kts
29-Dec-15 20:33 46.232874 6.106047 181 1419ft 0kts
29-Dec-15 20:34 46.232874 6.106047 181 1419ft 0kts
29-Dec-15 20:35 46.232874 6.106047 181 1419ft 0kts
29-Dec-15 20:36 46.232874 6.106047 181 1419ft 0kts
29-Dec-15 20:37 46.232874 6.106047 181 1419ft 0kts
29-Dec-15 20:38 46.232874 6.106047 181 1419ft 0kts
29-Dec-15 20:39 46.232874 6.106047 181 1419ft 0kts

Navigation Log

Ident Type
1. LIPE Airport
2. LUPOS Fix
3. PAR Navaid
4. MISPO Fix
5. TZO Navaid
6. SRN Navaid
7. OMETO Fix
8. TERSI Fix
9. AOSTA Fix
10. BANKO Fix
11. LSGG Airport